sensor_id;sensor_type;location;lat;lon;timestamp;P1;durP1;ratioP1;P2;durP2;ratioP2
2620;SDS011;1320;48.128;11.592;2022-07-06T00:00:42;9.63;;;3.87;;
2620;SDS011;1320;48.128;11.592;2022-07-06T00:03:08;10.33;;;3.60;;
2620;SDS011;1320;48.128;11.592;2022-07-06T00:05:34;10.27;;;3.30;;
2620;SDS011;1320;48.128;11.592;2022-07-06T00:07:59;9.83;;;3.17;;
2620;SDS011;1320;48.128;11.592;2022-07-06T00:10:25;7.40;;;3.23;;
2620;SDS011;1320;48.128;11.592;2022-07-06T00:12:50;7.60;;;3.30;;
2620;SDS011;1320;48.128;11.592;2022-07-06T00:15:16;8.40;;;3.30;;
2620;SDS011;1320;48.128;11.592;2022-07-06T00:17:42;6.97;;;3.00;;
2620;SDS011;1320;48.128;11.592;2022-07-06T00:20:08;8.53;;;3.10;;
2620;SDS011;1320;48.128;11.592;2022-07-06T00:22:34;9.00;;;3.60;;
2620;SDS011;1320;48.128;11.592;2022-07-06T00:25:00;7.53;;;3.10;;
2620;SDS011;1320;48.128;11.592;2022-07-06T00:27:25;7.87;;;3.50;;
2620;SDS011;1320;48.128;11.592;2022-07-06T00:29:51;7.67;;;3.33;;
2620;SDS011;1320;48.128;11.592;2022-07-06T00:32:16;8.00;;;3.50;;
2620;SDS011;1320;48.128;11.592;2022-07-06T00:34:42;7.30;;;3.03;;
2620;SDS011;1320;48.128;11.592;2022-07-06T00:37:08;9.70;;;3.50;;
2620;SDS011;1320;48.128;11.592;2022-07-06T00:39:34;7.83;;;3.00;;
2620;SDS011;1320;48.128;11.592;2022-07-06T00:41:59;7.00;;;2.60;;
2620;SDS011;1320;48.128;11.592;2022-07-06T00:44:25;6.70;;;3.20;;
2620;SDS011;1320;48.128;11.592;2022-07-06T00:46:51;7.60;;;3.03;;
2620;SDS011;1320;48.128;11.592;2022-07-06T00:49:17;6.80;;;3.10;;
2620;SDS011;1320;48.128;11.592;2022-07-06T00:52:02;7.83;;;3.33;;
2620;SDS011;1320;48.128;11.592;2022-07-06T00:54:29;8.97;;;3.30;;
2620;SDS011;1320;48.128;11.592;2022-07-06T00:56:57;7.50;;;3.10;;
2620;SDS011;1320;48.128;11.592;2022-07-06T00:59:23;8.73;;;3.50;;
2620;SDS011;1320;48.128;11.592;2022-07-06T01:01:50;7.53;;;2.63;;
2620;SDS011;1320;48.128;11.592;2022-07-06T01:04:16;8.07;;;4.07;;
2620;SDS011;1320;48.128;11.592;2022-07-06T01:06:41;8.90;;;3.33;;
2620;SDS011;1320;48.128;11.592;2022-07-06T01:09:10;9.17;;;3.70;;
2620;SDS011;1320;48.128;11.592;2022-07-06T01:11:36;9.60;;;3.90;;
2620;SDS011;1320;48.128;11.592;2022-07-06T01:14:01;8.13;;;3.40;;
2620;SDS011;1320;48.128;11.592;2022-07-06T01:16:27;8.27;;;3.37;;
2620;SDS011;1320;48.128;11.592;2022-07-06T01:18:53;7.67;;;3.50;;
2620;SDS011;1320;48.128;11.592;2022-07-06T01:21:19;7.63;;;3.20;;
2620;SDS011;1320;48.128;11.592;2022-07-06T01:23:45;8.17;;;3.60;;
2620;SDS011;1320;48.128;11.592;2022-07-06T01:26:13;15.20;;;3.80;;
2620;SDS011;1320;48.128;11.592;2022-07-06T01:28:41;8.47;;;3.50;;
2620;SDS011;1320;48.128;11.592;2022-07-06T01:31:14;8.30;;;2.80;;
2620;SDS011;1320;48.128;11.592;2022-07-06T01:33:44;8.20;;;3.50;;
2620;SDS011;1320;48.128;11.592;2022-07-06T01:36:09;7.97;;;3.00;;
2620;SDS011;1320;48.128;11.592;2022-07-06T01:38:45;7.50;;;2.80;;
2620;SDS011;1320;48.128;11.592;2022-07-06T01:41:15;8.20;;;2.90;;
2620;SDS011;1320;48.128;11.592;2022-07-06T01:43:41;7.23;;;2.97;;
2620;SDS011;1320;48.128;11.592;2022-07-06T01:46:07;9.03;;;3.47;;
2620;SDS011;1320;48.128;11.592;2022-07-06T01:48:33;11.03;;;3.37;;
2620;SDS011;1320;48.128;11.592;2022-07-06T01:50:58;7.83;;;2.60;;
2620;SDS011;1320;48.128;11.592;2022-07-06T01:53:24;8.73;;;3.03;;
2620;SDS011;1320;48.128;11.592;2022-07-06T01:55:50;7.83;;;3.20;;
2620;SDS011;1320;48.128;11.592;2022-07-06T01:58:15;8.07;;;2.90;;
2620;SDS011;1320;48.128;11.592;2022-07-06T02:00:41;9.00;;;3.20;;
2620;SDS011;1320;48.128;11.592;2022-07-06T02:03:07;7.57;;;3.10;;
2620;SDS011;1320;48.128;11.592;2022-07-06T02:05:33;7.57;;;2.90;;
2620;SDS011;1320;48.128;11.592;2022-07-06T02:07:58;8.40;;;2.90;;
2620;SDS011;1320;48.128;11.592;2022-07-06T02:10:24;7.50;;;3.03;;
2620;SDS011;1320;48.128;11.592;2022-07-06T02:12:50;7.60;;;3.17;;
2620;SDS011;1320;48.128;11.592;2022-07-06T02:15:16;8.50;;;3.00;;
2620;SDS011;1320;48.128;11.592;2022-07-06T02:17:41;7.90;;;2.90;;
2620;SDS011;1320;48.128;11.592;2022-07-06T02:20:07;7.90;;;3.23;;
2620;SDS011;1320;48.128;11.592;2022-07-06T02:22:33;8.70;;;3.27;;
2620;SDS011;1320;48.128;11.592;2022-07-06T02:24:59;7.80;;;3.40;;
2620;SDS011;1320;48.128;11.592;2022-07-06T02:27:25;8.63;;;3.57;;
2620;SDS011;1320;48.128;11.592;2022-07-06T02:29:51;7.93;;;3.70;;
2620;SDS011;1320;48.128;11.592;2022-07-06T02:32:16;9.63;;;3.63;;
2620;SDS011;1320;48.128;11.592;2022-07-06T02:34:42;8.00;;;2.83;;
2620;SDS011;1320;48.128;11.592;2022-07-06T02:37:08;7.90;;;2.77;;
2620;SDS011;1320;48.128;11.592;2022-07-06T02:39:34;7.70;;;3.20;;
2620;SDS011;1320;48.128;11.592;2022-07-06T02:42:00;7.60;;;3.00;;
2620;SDS011;1320;48.128;11.592;2022-07-06T02:44:25;8.73;;;3.17;;
2620;SDS011;1320;48.128;11.592;2022-07-06T02:46:51;8.67;;;3.33;;
2620;SDS011;1320;48.128;11.592;2022-07-06T02:49:17;7.57;;;2.90;;
2620;SDS011;1320;48.128;11.592;2022-07-06T02:51:42;7.57;;;3.13;;
2620;SDS011;1320;48.128;11.592;2022-07-06T02:54:08;11.50;;;3.10;;
2620;SDS011;1320;48.128;11.592;2022-07-06T02:56:34;8.73;;;3.30;;
2620;SDS011;1320;48.128;11.592;2022-07-06T02:58:59;8.90;;;3.70;;
2620;SDS011;1320;48.128;11.592;2022-07-06T03:01:25;10.10;;;4.67;;
2620;SDS011;1320;48.128;11.592;2022-07-06T03:03:51;10.07;;;4.30;;
2620;SDS011;1320;48.128;11.592;2022-07-06T03:06:16;9.87;;;3.17;;
2620;SDS011;1320;48.128;11.592;2022-07-06T03:08:42;9.40;;;3.20;;
2620;SDS011;1320;48.128;11.592;2022-07-06T03:11:08;8.30;;;3.87;;
2620;SDS011;1320;48.128;11.592;2022-07-06T03:13:34;15.10;;;3.90;;
2620;SDS011;1320;48.128;11.592;2022-07-06T03:16:00;8.63;;;3.73;;
2620;SDS011;1320;48.128;11.592;2022-07-06T03:18:26;8.07;;;4.33;;
2620;SDS011;1320;48.128;11.592;2022-07-06T03:20:52;7.90;;;3.20;;
2620;SDS011;1320;48.128;11.592;2022-07-06T03:23:18;8.17;;;3.10;;
2620;SDS011;1320;48.128;11.592;2022-07-06T03:25:44;11.30;;;4.20;;
2620;SDS011;1320;48.128;11.592;2022-07-06T03:28:10;8.87;;;3.57;;
2620;SDS011;1320;48.128;11.592;2022-07-06T03:30:35;8.73;;;3.40;;
2620;SDS011;1320;48.128;11.592;2022-07-06T03:33:01;9.77;;;3.90;;
2620;SDS011;1320;48.128;11.592;2022-07-06T03:35:26;14.80;;;3.93;;
2620;SDS011;1320;48.128;11.592;2022-07-06T03:37:52;8.83;;;3.27;;
2620;SDS011;1320;48.128;11.592;2022-07-06T03:40:18;8.03;;;3.20;;
2620;SDS011;1320;48.128;11.592;2022-07-06T03:42:43;9.20;;;3.33;;
2620;SDS011;1320;48.128;11.592;2022-07-06T03:45:09;7.70;;;3.20;;
2620;SDS011;1320;48.128;11.592;2022-07-06T03:47:35;9.23;;;3.73;;
2620;SDS011;1320;48.128;11.592;2022-07-06T03:50:01;9.87;;;3.63;;
2620;SDS011;1320;48.128;11.592;2022-07-06T03:52:27;7.97;;;3.40;;
2620;SDS011;1320;48.128;11.592;2022-07-06T03:54:52;9.10;;;3.33;;
2620;SDS011;1320;48.128;11.592;2022-07-06T03:57:18;8.23;;;3.20;;
2620;SDS011;1320;48.128;11.592;2022-07-06T03:59:44;9.40;;;3.63;;
2620;SDS011;1320;48.128;11.592;2022-07-06T04:02:09;10.10;;;2.87;;
2620;SDS011;1320;48.128;11.592;2022-07-06T04:04:35;9.40;;;3.30;;
2620;SDS011;1320;48.128;11.592;2022-07-06T04:07:01;8.63;;;3.23;;
2620;SDS011;1320;48.128;11.592;2022-07-06T04:09:26;8.03;;;2.77;;
2620;SDS011;1320;48.128;11.592;2022-07-06T04:11:52;8.83;;;3.37;;
2620;SDS011;1320;48.128;11.592;2022-07-06T04:14:18;10.10;;;4.13;;
2620;SDS011;1320;48.128;11.592;2022-07-06T04:16:43;8.30;;;3.33;;
2620;SDS011;1320;48.128;11.592;2022-07-06T04:19:09;8.80;;;3.03;;
2620;SDS011;1320;48.128;11.592;2022-07-06T04:21:35;7.80;;;3.00;;
2620;SDS011;1320;48.128;11.592;2022-07-06T04:24:00;8.60;;;3.17;;
2620;SDS011;1320;48.128;11.592;2022-07-06T04:26:26;7.53;;;2.97;;
2620;SDS011;1320;48.128;11.592;2022-07-06T04:28:52;11.23;;;3.10;;
2620;SDS011;1320;48.128;11.592;2022-07-06T04:31:18;9.10;;;3.23;;
2620;SDS011;1320;48.128;11.592;2022-07-06T04:33:43;14.10;;;4.00;;
2620;SDS011;1320;48.128;11.592;2022-07-06T04:36:09;8.40;;;2.90;;
2620;SDS011;1320;48.128;11.592;2022-07-06T04:38:35;8.53;;;3.30;;
2620;SDS011;1320;48.128;11.592;2022-07-06T04:41:01;10.30;;;3.40;;
2620;SDS011;1320;48.128;11.592;2022-07-06T04:43:27;10.00;;;3.40;;
2620;SDS011;1320;48.128;11.592;2022-07-06T04:45:53;9.17;;;4.03;;
2620;SDS011;1320;48.128;11.592;2022-07-06T04:48:18;10.10;;;3.87;;
2620;SDS011;1320;48.128;11.592;2022-07-06T04:50:44;8.43;;;3.40;;
2620;SDS011;1320;48.128;11.592;2022-07-06T04:53:10;9.47;;;3.73;;
2620;SDS011;1320;48.128;11.592;2022-07-06T04:55:35;11.90;;;3.33;;
2620;SDS011;1320;48.128;11.592;2022-07-06T04:58:01;8.13;;;3.10;;
2620;SDS011;1320;48.128;11.592;2022-07-06T05:00:27;9.17;;;3.33;;
2620;SDS011;1320;48.128;11.592;2022-07-06T05:02:52;12.20;;;3.50;;
2620;SDS011;1320;48.128;11.592;2022-07-06T05:05:18;10.53;;;3.93;;
2620;SDS011;1320;48.128;11.592;2022-07-06T05:07:44;9.17;;;3.30;;
2620;SDS011;1320;48.128;11.592;2022-07-06T05:10:10;12.00;;;3.83;;
2620;SDS011;1320;48.128;11.592;2022-07-06T05:12:36;9.27;;;3.37;;
2620;SDS011;1320;48.128;11.592;2022-07-06T05:15:02;7.80;;;3.37;;
2620;SDS011;1320;48.128;11.592;2022-07-06T05:17:28;8.53;;;3.40;;
2620;SDS011;1320;48.128;11.592;2022-07-06T05:19:54;8.90;;;3.10;;
2620;SDS011;1320;48.128;11.592;2022-07-06T05:22:20;8.83;;;2.80;;
2620;SDS011;1320;48.128;11.592;2022-07-06T05:24:45;8.33;;;3.00;;
2620;SDS011;1320;48.128;11.592;2022-07-06T05:27:11;8.90;;;3.50;;
2620;SDS011;1320;48.128;11.592;2022-07-06T05:29:37;10.57;;;3.20;;
2620;SDS011;1320;48.128;11.592;2022-07-06T05:32:02;11.23;;;3.57;;
2620;SDS011;1320;48.128;11.592;2022-07-06T05:34:28;8.90;;;3.30;;
2620;SDS011;1320;48.128;11.592;2022-07-06T05:36:54;8.70;;;3.70;;
2620;SDS011;1320;48.128;11.592;2022-07-06T05:39:20;10.73;;;3.77;;
2620;SDS011;1320;48.128;11.592;2022-07-06T05:41:47;7.30;;;3.13;;
2620;SDS011;1320;48.128;11.592;2022-07-06T05:44:14;9.13;;;3.20;;
2620;SDS011;1320;48.128;11.592;2022-07-06T05:46:40;13.70;;;3.70;;
2620;SDS011;1320;48.128;11.592;2022-07-06T05:49:06;7.53;;;3.53;;
2620;SDS011;1320;48.128;11.592;2022-07-06T05:51:50;9.60;;;3.70;;
2620;SDS011;1320;48.128;11.592;2022-07-06T05:54:16;9.67;;;4.33;;
2620;SDS011;1320;48.128;11.592;2022-07-06T05:56:41;9.07;;;3.97;;
2620;SDS011;1320;48.128;11.592;2022-07-06T05:59:07;9.53;;;3.70;;
2620;SDS011;1320;48.128;11.592;2022-07-06T06:01:33;8.00;;;3.47;;
2620;SDS011;1320;48.128;11.592;2022-07-06T06:03:59;8.70;;;3.87;;
2620;SDS011;1320;48.128;11.592;2022-07-06T06:06:25;9.10;;;4.70;;
2620;SDS011;1320;48.128;11.592;2022-07-06T06:08:51;8.70;;;3.90;;
2620;SDS011;1320;48.128;11.592;2022-07-06T06:11:17;10.13;;;4.20;;
2620;SDS011;1320;48.128;11.592;2022-07-06T06:13:43;9.50;;;4.00;;
2620;SDS011;1320;48.128;11.592;2022-07-06T06:16:08;8.90;;;4.97;;
2620;SDS011;1320;48.128;11.592;2022-07-06T06:18:34;8.90;;;4.47;;
2620;SDS011;1320;48.128;11.592;2022-07-06T06:21:00;9.67;;;4.23;;
2620;SDS011;1320;48.128;11.592;2022-07-06T06:23:26;11.37;;;3.90;;
2620;SDS011;1320;48.128;11.592;2022-07-06T06:25:51;9.13;;;4.30;;
2620;SDS011;1320;48.128;11.592;2022-07-06T06:28:17;9.70;;;4.57;;
2620;SDS011;1320;48.128;11.592;2022-07-06T06:30:43;12.73;;;4.20;;
2620;SDS011;1320;48.128;11.592;2022-07-06T06:33:10;10.00;;;5.07;;
2620;SDS011;1320;48.128;11.592;2022-07-06T06:35:44;9.27;;;4.23;;
2620;SDS011;1320;48.128;11.592;2022-07-06T06:38:11;9.70;;;4.67;;
2620;SDS011;1320;48.128;11.592;2022-07-06T06:40:37;10.67;;;4.90;;
2620;SDS011;1320;48.128;11.592;2022-07-06T06:43:03;8.50;;;4.97;;
2620;SDS011;1320;48.128;11.592;2022-07-06T06:45:29;9.63;;;5.40;;
2620;SDS011;1320;48.128;11.592;2022-07-06T06:47:55;10.80;;;4.90;;
2620;SDS011;1320;48.128;11.592;2022-07-06T06:50:20;9.50;;;4.10;;
2620;SDS011;1320;48.128;11.592;2022-07-06T06:52:48;9.17;;;4.43;;
2620;SDS011;1320;48.128;11.592;2022-07-06T06:55:15;12.20;;;4.97;;
2620;SDS011;1320;48.128;11.592;2022-07-06T06:57:40;12.70;;;6.83;;
2620;SDS011;1320;48.128;11.592;2022-07-06T07:00:06;10.43;;;4.50;;
2620;SDS011;1320;48.128;11.592;2022-07-06T07:02:33;11.53;;;5.40;;
2620;SDS011;1320;48.128;11.592;2022-07-06T07:04:59;9.83;;;4.07;;
2620;SDS011;1320;48.128;11.592;2022-07-06T07:07:24;9.47;;;4.43;;
2620;SDS011;1320;48.128;11.592;2022-07-06T07:09:50;10.93;;;4.37;;
2620;SDS011;1320;48.128;11.592;2022-07-06T07:12:16;8.83;;;3.40;;
2620;SDS011;1320;48.128;11.592;2022-07-06T07:14:42;9.90;;;3.97;;
2620;SDS011;1320;48.128;11.592;2022-07-06T07:17:08;7.43;;;3.40;;
2620;SDS011;1320;48.128;11.592;2022-07-06T07:19:35;8.73;;;3.70;;
2620;SDS011;1320;48.128;11.592;2022-07-06T07:22:01;8.97;;;3.53;;
2620;SDS011;1320;48.128;11.592;2022-07-06T07:24:27;8.33;;;3.83;;
2620;SDS011;1320;48.128;11.592;2022-07-06T07:26:52;9.23;;;3.70;;
2620;SDS011;1320;48.128;11.592;2022-07-06T07:29:18;12.43;;;4.47;;
2620;SDS011;1320;48.128;11.592;2022-07-06T07:31:44;8.07;;;3.10;;
2620;SDS011;1320;48.128;11.592;2022-07-06T07:34:09;8.13;;;3.97;;
2620;SDS011;1320;48.128;11.592;2022-07-06T07:36:35;8.53;;;3.90;;
2620;SDS011;1320;48.128;11.592;2022-07-06T07:39:02;9.47;;;3.90;;
2620;SDS011;1320;48.128;11.592;2022-07-06T07:41:28;11.53;;;4.10;;
2620;SDS011;1320;48.128;11.592;2022-07-06T07:43:53;10.97;;;4.27;;
2620;SDS011;1320;48.128;11.592;2022-07-06T07:46:19;9.47;;;3.67;;
2620;SDS011;1320;48.128;11.592;2022-07-06T07:48:45;8.67;;;3.70;;
2620;SDS011;1320;48.128;11.592;2022-07-06T07:51:10;7.50;;;3.67;;
2620;SDS011;1320;48.128;11.592;2022-07-06T07:53:36;8.10;;;3.43;;
2620;SDS011;1320;48.128;11.592;2022-07-06T07:56:02;8.07;;;3.33;;
2620;SDS011;1320;48.128;11.592;2022-07-06T07:58:27;7.50;;;3.10;;
2620;SDS011;1320;48.128;11.592;2022-07-06T08:00:53;9.10;;;3.77;;
2620;SDS011;1320;48.128;11.592;2022-07-06T08:03:19;8.70;;;4.37;;
2620;SDS011;1320;48.128;11.592;2022-07-06T08:05:45;12.50;;;10.45;;
2620;SDS011;1320;48.128;11.592;2022-07-06T08:08:12;9.67;;;4.97;;
2620;SDS011;1320;48.128;11.592;2022-07-06T08:10:38;8.70;;;4.20;;
2620;SDS011;1320;48.128;11.592;2022-07-06T08:13:05;10.10;;;4.30;;
2620;SDS011;1320;48.128;11.592;2022-07-06T08:15:32;10.27;;;5.00;;
2620;SDS011;1320;48.128;11.592;2022-07-06T08:17:58;8.67;;;3.97;;
2620;SDS011;1320;48.128;11.592;2022-07-06T08:20:24;9.90;;;4.30;;
2620;SDS011;1320;48.128;11.592;2022-07-06T08:22:49;9.77;;;4.47;;
2620;SDS011;1320;48.128;11.592;2022-07-06T08:25:15;8.63;;;3.87;;
2620;SDS011;1320;48.128;11.592;2022-07-06T08:27:42;11.53;;;5.17;;
2620;SDS011;1320;48.128;11.592;2022-07-06T08:30:08;9.53;;;4.17;;
2620;SDS011;1320;48.128;11.592;2022-07-06T08:32:36;9.87;;;4.63;;
2620;SDS011;1320;48.128;11.592;2022-07-06T08:35:03;8.80;;;4.97;;
2620;SDS011;1320;48.128;11.592;2022-07-06T08:37:29;8.50;;;5.47;;
2620;SDS011;1320;48.128;11.592;2022-07-06T08:39:55;10.47;;;6.40;;
2620;SDS011;1320;48.128;11.592;2022-07-06T08:42:21;10.00;;;7.83;;
2620;SDS011;1320;48.128;11.592;2022-07-06T08:44:50;8.40;;;6.47;;
2620;SDS011;1320;48.128;11.592;2022-07-06T08:47:18;10.07;;;6.27;;
2620;SDS011;1320;48.128;11.592;2022-07-06T08:49:45;8.70;;;6.53;;
2620;SDS011;1320;48.128;11.592;2022-07-06T08:52:11;9.07;;;7.93;;
2620;SDS011;1320;48.128;11.592;2022-07-06T08:54:37;10.10;;;7.47;;
2620;SDS011;1320;48.128;11.592;2022-07-06T08:57:03;7.70;;;6.80;;
2620;SDS011;1320;48.128;11.592;2022-07-06T08:59:30;8.00;;;6.63;;
2620;SDS011;1320;48.128;11.592;2022-07-06T09:01:56;7.90;;;7.10;;
2620;SDS011;1320;48.128;11.592;2022-07-06T09:04:24;9.13;;;7.57;;
2620;SDS011;1320;48.128;11.592;2022-07-06T09:06:50;6.93;;;5.53;;
2620;SDS011;1320;48.128;11.592;2022-07-06T09:09:20;10.23;;;6.27;;
2620;SDS011;1320;48.128;11.592;2022-07-06T09:11:48;8.57;;;7.60;;
2620;SDS011;1320;48.128;11.592;2022-07-06T09:14:14;10.47;;;6.40;;
2620;SDS011;1320;48.128;11.592;2022-07-06T09:16:40;8.87;;;6.63;;
2620;SDS011;1320;48.128;11.592;2022-07-06T09:19:07;8.87;;;6.00;;
2620;SDS011;1320;48.128;11.592;2022-07-06T09:21:36;9.03;;;6.07;;
2620;SDS011;1320;48.128;11.592;2022-07-06T09:24:03;11.67;;;5.83;;
2620;SDS011;1320;48.128;11.592;2022-07-06T09:26:33;8.90;;;5.57;;
2620;SDS011;1320;48.128;11.592;2022-07-06T09:28:59;9.10;;;5.43;;
2620;SDS011;1320;48.128;11.592;2022-07-06T09:31:25;8.87;;;5.30;;
2620;SDS011;1320;48.128;11.592;2022-07-06T09:39:19;9.70;;;4.87;;
2620;SDS011;1320;48.128;11.592;2022-07-06T09:41:48;8.90;;;4.50;;
2620;SDS011;1320;48.128;11.592;2022-07-06T09:44:22;9.07;;;4.50;;
2620;SDS011;1320;48.128;11.592;2022-07-06T09:46:49;7.83;;;4.00;;
2620;SDS011;1320;48.128;11.592;2022-07-06T09:49:16;8.50;;;5.13;;
2620;SDS011;1320;48.128;11.592;2022-07-06T09:51:44;9.90;;;6.80;;
2620;SDS011;1320;48.128;11.592;2022-07-06T09:54:11;10.10;;;5.63;;
2620;SDS011;1320;48.128;11.592;2022-07-06T09:56:38;7.83;;;4.93;;
2620;SDS011;1320;48.128;11.592;2022-07-06T09:59:11;7.47;;;5.67;;
2620;SDS011;1320;48.128;11.592;2022-07-06T10:01:38;8.50;;;6.13;;
2620;SDS011;1320;48.128;11.592;2022-07-06T10:04:08;9.37;;;5.80;;
2620;SDS011;1320;48.128;11.592;2022-07-06T10:06:35;12.07;;;5.83;;
2620;SDS011;1320;48.128;11.592;2022-07-06T10:09:01;7.50;;;5.20;;
2620;SDS011;1320;48.128;11.592;2022-07-06T10:11:30;11.07;;;5.67;;
2620;SDS011;1320;48.128;11.592;2022-07-06T10:14:01;9.63;;;5.07;;
2620;SDS011;1320;48.128;11.592;2022-07-06T10:16:30;7.60;;;4.80;;
2620;SDS011;1320;48.128;11.592;2022-07-06T10:18:56;10.47;;;6.33;;
2620;SDS011;1320;48.128;11.592;2022-07-06T10:21:23;7.10;;;4.97;;
2620;SDS011;1320;48.128;11.592;2022-07-06T10:23:50;7.67;;;4.90;;
2620;SDS011;1320;48.128;11.592;2022-07-06T10:26:17;8.77;;;5.60;;
2620;SDS011;1320;48.128;11.592;2022-07-06T10:28:44;9.07;;;5.13;;
2620;SDS011;1320;48.128;11.592;2022-07-06T10:31:12;10.23;;;6.13;;
2620;SDS011;1320;48.128;11.592;2022-07-06T10:33:40;7.80;;;5.07;;
2620;SDS011;1320;48.128;11.592;2022-07-06T10:36:07;8.53;;;5.10;;
2620;SDS011;1320;48.128;11.592;2022-07-06T10:38:33;8.87;;;5.63;;
2620;SDS011;1320;48.128;11.592;2022-07-06T10:41:04;7.60;;;4.73;;
2620;SDS011;1320;48.128;11.592;2022-07-06T10:43:35;9.10;;;5.30;;
2620;SDS011;1320;48.128;11.592;2022-07-06T10:46:06;9.47;;;5.47;;
2620;SDS011;1320;48.128;11.592;2022-07-06T10:48:36;8.40;;;5.27;;
2620;SDS011;1320;48.128;11.592;2022-07-06T10:51:03;9.30;;;5.00;;
2620;SDS011;1320;48.128;11.592;2022-07-06T10:53:31;7.80;;;4.80;;
2620;SDS011;1320;48.128;11.592;2022-07-06T10:56:03;7.43;;;4.70;;
2620;SDS011;1320;48.128;11.592;2022-07-06T11:01:18;8.50;;;4.60;;
2620;SDS011;1320;48.128;11.592;2022-07-06T11:08:46;10.37;;;5.00;;
2620;SDS011;1320;48.128;11.592;2022-07-06T11:11:24;8.97;;;4.23;;
2620;SDS011;1320;48.128;11.592;2022-07-06T11:13:58;8.00;;;4.40;;
2620;SDS011;1320;48.128;11.592;2022-07-06T11:17:10;8.57;;;5.00;;
2620;SDS011;1320;48.128;11.592;2022-07-06T11:19:17;9.00;;;4.40;;
2620;SDS011;1320;48.128;11.592;2022-07-06T11:21:48;7.90;;;5.50;;
2620;SDS011;1320;48.128;11.592;2022-07-06T11:24:24;8.80;;;4.60;;
2620;SDS011;1320;48.128;11.592;2022-07-06T11:26:52;6.83;;;4.50;;
2620;SDS011;1320;48.128;11.592;2022-07-06T11:29:20;12.10;;;4.17;;
2620;SDS011;1320;48.128;11.592;2022-07-06T11:31:47;8.43;;;6.03;;
2620;SDS011;1320;48.128;11.592;2022-07-06T11:34:28;8.80;;;4.80;;
2620;SDS011;1320;48.128;11.592;2022-07-06T11:36:59;7.30;;;4.63;;
2620;SDS011;1320;48.128;11.592;2022-07-06T11:39:30;9.20;;;4.50;;
2620;SDS011;1320;48.128;11.592;2022-07-06T11:42:00;9.33;;;6.43;;
2620;SDS011;1320;48.128;11.592;2022-07-06T11:44:29;7.60;;;4.83;;
2620;SDS011;1320;48.128;11.592;2022-07-06T11:46:55;10.17;;;4.00;;
2620;SDS011;1320;48.128;11.592;2022-07-06T11:49:22;7.50;;;4.33;;
2620;SDS011;1320;48.128;11.592;2022-07-06T11:51:48;10.20;;;3.80;;
2620;SDS011;1320;48.128;11.592;2022-07-06T11:54:15;7.60;;;4.37;;
2620;SDS011;1320;48.128;11.592;2022-07-06T11:57:15;9.40;;;5.00;;
2620;SDS011;1320;48.128;11.592;2022-07-06T11:59:36;7.20;;;4.60;;
2620;SDS011;1320;48.128;11.592;2022-07-06T12:04:30;9.80;;;3.93;;
2620;SDS011;1320;48.128;11.592;2022-07-06T12:07:02;6.70;;;3.90;;
2620;SDS011;1320;48.128;11.592;2022-07-06T12:09:33;7.07;;;4.27;;
2620;SDS011;1320;48.128;11.592;2022-07-06T12:12:01;9.27;;;3.97;;
2620;SDS011;1320;48.128;11.592;2022-07-06T12:14:28;6.90;;;4.43;;
2620;SDS011;1320;48.128;11.592;2022-07-06T12:16:55;11.17;;;5.20;;
2620;SDS011;1320;48.128;11.592;2022-07-06T12:19:21;7.97;;;4.57;;
2620;SDS011;1320;48.128;11.592;2022-07-06T12:21:48;7.77;;;5.00;;
2620;SDS011;1320;48.128;11.592;2022-07-06T12:26:49;7.13;;;4.57;;
2620;SDS011;1320;48.128;11.592;2022-07-06T12:29:15;9.17;;;6.20;;
2620;SDS011;1320;48.128;11.592;2022-07-06T12:34:27;9.60;;;5.30;;
2620;SDS011;1320;48.128;11.592;2022-07-06T12:37:03;7.17;;;4.10;;
2620;SDS011;1320;48.128;11.592;2022-07-06T12:39:32;9.43;;;4.27;;
2620;SDS011;1320;48.128;11.592;2022-07-06T12:42:05;8.87;;;5.07;;
2620;SDS011;1320;48.128;11.592;2022-07-06T12:44:31;8.10;;;5.73;;
2620;SDS011;1320;48.128;11.592;2022-07-06T12:47:03;7.67;;;4.53;;
2620;SDS011;1320;48.128;11.592;2022-07-06T12:49:30;9.50;;;5.20;;
2620;SDS011;1320;48.128;11.592;2022-07-06T12:54:23;7.53;;;4.37;;
2620;SDS011;1320;48.128;11.592;2022-07-06T12:59:23;10.60;;;4.00;;
2620;SDS011;1320;48.128;11.592;2022-07-06T13:01:49;10.20;;;4.50;;
2620;SDS011;1320;48.128;11.592;2022-07-06T13:04:22;7.30;;;4.73;;
2620;SDS011;1320;48.128;11.592;2022-07-06T13:06:48;7.20;;;4.30;;
2620;SDS011;1320;48.128;11.592;2022-07-06T13:09:14;7.60;;;3.87;;
2620;SDS011;1320;48.128;11.592;2022-07-06T13:11:41;7.90;;;4.23;;
2620;SDS011;1320;48.128;11.592;2022-07-06T13:14:07;6.90;;;3.87;;
2620;SDS011;1320;48.128;11.592;2022-07-06T13:16:34;9.40;;;4.57;;
2620;SDS011;1320;48.128;11.592;2022-07-06T13:19:00;7.00;;;4.60;;
2620;SDS011;1320;48.128;11.592;2022-07-06T13:21:27;7.43;;;4.27;;
2620;SDS011;1320;48.128;11.592;2022-07-06T13:23:52;7.60;;;4.87;;
2620;SDS011;1320;48.128;11.592;2022-07-06T13:26:18;7.60;;;5.00;;
2620;SDS011;1320;48.128;11.592;2022-07-06T13:28:44;8.40;;;5.00;;
2620;SDS011;1320;48.128;11.592;2022-07-06T13:31:09;6.50;;;4.37;;
2620;SDS011;1320;48.128;11.592;2022-07-06T13:33:35;7.10;;;4.30;;
2620;SDS011;1320;48.128;11.592;2022-07-06T13:36:01;7.40;;;4.93;;
2620;SDS011;1320;48.128;11.592;2022-07-06T13:38:27;9.27;;;5.60;;
2620;SDS011;1320;48.128;11.592;2022-07-06T13:40:53;7.00;;;6.10;;
2620;SDS011;1320;48.128;11.592;2022-07-06T13:43:19;7.07;;;4.60;;
2620;SDS011;1320;48.128;11.592;2022-07-06T13:45:48;7.43;;;4.37;;
2620;SDS011;1320;48.128;11.592;2022-07-06T13:48:13;8.03;;;5.90;;
2620;SDS011;1320;48.128;11.592;2022-07-06T13:50:39;7.57;;;5.30;;
2620;SDS011;1320;48.128;11.592;2022-07-06T13:53:05;9.73;;;5.70;;
2620;SDS011;1320;48.128;11.592;2022-07-06T13:55:31;8.90;;;4.53;;
2620;SDS011;1320;48.128;11.592;2022-07-06T13:57:57;7.43;;;5.97;;
2620;SDS011;1320;48.128;11.592;2022-07-06T14:00:24;7.00;;;4.90;;
2620;SDS011;1320;48.128;11.592;2022-07-06T14:02:51;6.10;;;4.10;;
2620;SDS011;1320;48.128;11.592;2022-07-06T14:05:17;7.80;;;4.47;;
2620;SDS011;1320;48.128;11.592;2022-07-06T14:07:43;7.70;;;5.57;;
2620;SDS011;1320;48.128;11.592;2022-07-06T14:10:09;7.40;;;4.83;;
2620;SDS011;1320;48.128;11.592;2022-07-06T14:12:34;8.13;;;4.87;;
2620;SDS011;1320;48.128;11.592;2022-07-06T14:15:00;9.03;;;6.33;;
2620;SDS011;1320;48.128;11.592;2022-07-06T14:17:26;7.90;;;6.07;;
2620;SDS011;1320;48.128;11.592;2022-07-06T14:19:51;7.23;;;4.57;;
2620;SDS011;1320;48.128;11.592;2022-07-06T14:22:17;8.20;;;5.50;;
2620;SDS011;1320;48.128;11.592;2022-07-06T14:24:43;6.90;;;4.37;;
2620;SDS011;1320;48.128;11.592;2022-07-06T14:27:09;7.80;;;4.93;;
2620;SDS011;1320;48.128;11.592;2022-07-06T14:29:34;6.33;;;4.47;;
2620;SDS011;1320;48.128;11.592;2022-07-06T14:32:00;7.63;;;4.40;;
2620;SDS011;1320;48.128;11.592;2022-07-06T14:34:26;9.33;;;4.93;;
2620;SDS011;1320;48.128;11.592;2022-07-06T14:36:52;7.20;;;5.70;;
2620;SDS011;1320;48.128;11.592;2022-07-06T14:39:18;8.97;;;6.03;;
2620;SDS011;1320;48.128;11.592;2022-07-06T14:41:44;8.60;;;4.80;;
2620;SDS011;1320;48.128;11.592;2022-07-06T14:44:10;8.37;;;4.47;;
2620;SDS011;1320;48.128;11.592;2022-07-06T14:46:35;7.37;;;5.07;;
2620;SDS011;1320;48.128;11.592;2022-07-06T14:49:01;8.57;;;5.17;;
2620;SDS011;1320;48.128;11.592;2022-07-06T14:51:27;7.30;;;5.47;;
2620;SDS011;1320;48.128;11.592;2022-07-06T14:53:53;7.93;;;4.97;;
2620;SDS011;1320;48.128;11.592;2022-07-06T14:56:19;9.10;;;6.10;;
2620;SDS011;1320;48.128;11.592;2022-07-06T14:58:45;6.90;;;5.53;;
2620;SDS011;1320;48.128;11.592;2022-07-06T15:01:11;8.07;;;6.00;;
2620;SDS011;1320;48.128;11.592;2022-07-06T15:03:37;7.47;;;5.17;;
2620;SDS011;1320;48.128;11.592;2022-07-06T15:06:03;7.03;;;5.97;;
2620;SDS011;1320;48.128;11.592;2022-07-06T15:08:29;8.33;;;5.73;;
2620;SDS011;1320;48.128;11.592;2022-07-06T15:10:55;6.70;;;4.33;;
2620;SDS011;1320;48.128;11.592;2022-07-06T15:13:21;8.07;;;5.90;;
2620;SDS011;1320;48.128;11.592;2022-07-06T15:15:47;8.93;;;6.77;;
2620;SDS011;1320;48.128;11.592;2022-07-06T15:18:13;7.70;;;4.70;;
2620;SDS011;1320;48.128;11.592;2022-07-06T15:20:39;8.30;;;4.97;;